sensor_id;sensor_type;location;lat;lon;timestamp;pressure;altitude;pressure_sealevel;temperature;humidity
47750;BME280;49810;48.160;10.812;2022-10-18T00:01:01;96199.47;;;10.47;90.72
47750;BME280;49810;48.160;10.812;2022-10-18T00:03:29;96206.00;;;10.45;91.04
47750;BME280;49810;48.160;10.812;2022-10-18T00:05:57;96212.91;;;10.46;91.19
47750;BME280;49810;48.160;10.812;2022-10-18T00:08:26;96210.63;;;10.49;90.96
47750;BME280;49810;48.160;10.812;2022-10-18T00:10:55;96210.97;;;10.53;90.82
47750;BME280;49810;48.160;10.812;2022-10-18T00:13:23;96218.91;;;10.53;90.82
47750;BME280;49810;48.160;10.812;2022-10-18T00:15:56;96227.78;;;10.76;90.33
47750;BME280;49810;48.160;10.812;2022-10-18T00:18:25;96223.63;;;10.69;90.26
47750;BME280;49810;48.160;10.812;2022-10-18T00:20:58;96223.16;;;10.72;89.79
47750;BME280;49810;48.160;10.812;2022-10-18T00:23:28;96228.00;;;10.57;90.58
47750;BME280;49810;48.160;10.812;2022-10-18T00:26:01;96227.44;;;10.55;91.05
47750;BME280;49810;48.160;10.812;2022-10-18T00:28:30;96227.44;;;10.55;90.96
47750;BME280;49810;48.160;10.812;2022-10-18T00:31:10;96220.97;;;10.51;90.90
47750;BME280;49810;48.160;10.812;2022-10-18T00:33:39;96215.53;;;10.46;90.91
47750;BME280;49810;48.160;10.812;2022-10-18T00:36:07;96210.69;;;10.43;90.86
47750;BME280;49810;48.160;10.812;2022-10-18T00:38:36;96211.34;;;10.38;90.83
47750;BME280;49810;48.160;10.812;2022-10-18T00:41:06;96220.75;;;10.34;90.82
47750;BME280;49810;48.160;10.812;2022-10-18T00:43:50;96218.81;;;10.23;91.50
47750;BME280;49810;48.160;10.812;2022-10-18T00:46:19;96222.91;;;10.19;91.41
47750;BME280;49810;48.160;10.812;2022-10-18T00:48:48;96226.75;;;10.23;91.45
47750;BME280;49810;48.160;10.812;2022-10-18T00:51:18;96225.19;;;10.16;91.51
47750;BME280;49810;48.160;10.812;2022-10-18T00:53:48;96236.59;;;10.34;91.38
47750;BME280;49810;48.160;10.812;2022-10-18T00:56:16;96234.41;;;10.49;90.96
47750;BME280;49810;48.160;10.812;2022-10-18T00:58:45;96228.56;;;10.65;90.02
47750;BME280;49810;48.160;10.812;2022-10-18T01:01:14;96225.16;;;10.40;90.39
47750;BME280;49810;48.160;10.812;2022-10-18T01:03:44;96223.53;;;10.21;90.64
47750;BME280;49810;48.160;10.812;2022-10-18T01:06:12;96220.31;;;10.13;91.07
47750;BME280;49810;48.160;10.812;2022-10-18T01:08:48;96223.44;;;10.10;91.30
47750;BME280;49810;48.160;10.812;2022-10-18T01:11:28;96219.38;;;10.07;91.58
47750;BME280;49810;48.160;10.812;2022-10-18T01:14:07;96223.22;;;10.11;91.77
47750;BME280;49810;48.160;10.812;2022-10-18T01:16:45;96221.16;;;10.13;91.50
47750;BME280;49810;48.160;10.812;2022-10-18T01:19:34;96217.31;;;10.09;91.33
47750;BME280;49810;48.160;10.812;2022-10-18T01:22:13;96219.81;;;10.04;91.37
47750;BME280;49810;48.160;10.812;2022-10-18T01:24:58;96221.28;;;9.94;91.57
47750;BME280;49810;48.160;10.812;2022-10-18T01:27:42;96213.00;;;9.90;91.86
47750;BME280;49810;48.160;10.812;2022-10-18T01:30:37;96215.69;;;9.84;91.74
47750;BME280;49810;48.160;10.812;2022-10-18T01:33:13;96215.34;;;9.80;91.78
47750;BME280;49810;48.160;10.812;2022-10-18T01:35:46;96221.81;;;9.84;91.54
47750;BME280;49810;48.160;10.812;2022-10-18T01:38:17;96217.25;;;9.91;91.65
47750;BME280;49810;48.160;10.812;2022-10-18T01:40:49;96200.38;;;9.92;91.23
47750;BME280;49810;48.160;10.812;2022-10-18T01:43:20;96210.09;;;9.98;91.37
47750;BME280;49810;48.160;10.812;2022-10-18T01:45:52;96204.00;;;9.98;91.43
47750;BME280;49810;48.160;10.812;2022-10-18T01:48:21;96204.59;;;10.00;91.16
47750;BME280;49810;48.160;10.812;2022-10-18T01:50:51;96207.25;;;10.00;90.92
47750;BME280;49810;48.160;10.812;2022-10-18T01:53:23;96200.38;;;9.92;91.12
47750;BME280;49810;48.160;10.812;2022-10-18T01:59:17;96229.16;;;10.00;90.67
47750;BME280;49810;48.160;10.812;2022-10-18T02:01:54;96220.66;;;10.23;90.17
47750;BME280;49810;48.160;10.812;2022-10-18T02:04:30;96213.97;;;10.20;90.36
47750;BME280;49810;48.160;10.812;2022-10-18T02:07:05;96208.25;;;10.41;90.05
47750;BME280;49810;48.160;10.812;2022-10-18T02:09:39;96214.06;;;10.50;89.23
47750;BME280;49810;48.160;10.812;2022-10-18T02:12:12;96213.19;;;10.56;88.86
47750;BME280;49810;48.160;10.812;2022-10-18T02:14:42;96217.00;;;10.42;89.49
47750;BME280;49810;48.160;10.812;2022-10-18T02:17:15;96213.25;;;10.49;89.75
47750;BME280;49810;48.160;10.812;2022-10-18T02:19:45;96209.66;;;10.44;89.70
47750;BME280;49810;48.160;10.812;2022-10-18T02:22:15;96209.88;;;10.42;89.62
47750;BME280;49810;48.160;10.812;2022-10-18T02:24:47;96213.69;;;10.46;89.72
47750;BME280;49810;48.160;10.812;2022-10-18T02:27:16;96224.72;;;10.43;89.70
47750;BME280;49810;48.160;10.812;2022-10-18T02:29:45;96223.00;;;10.49;89.68
47750;BME280;49810;48.160;10.812;2022-10-18T02:32:19;96228.16;;;10.62;88.96
47750;BME280;49810;48.160;10.812;2022-10-18T02:34:56;96222.88;;;10.62;88.99
47750;BME280;49810;48.160;10.812;2022-10-18T02:37:30;96221.19;;;10.67;89.05
47750;BME280;49810;48.160;10.812;2022-10-18T02:40:02;96214.88;;;10.68;89.57
47750;BME280;49810;48.160;10.812;2022-10-18T02:42:34;96225.81;;;10.72;88.80
47750;BME280;49810;48.160;10.812;2022-10-18T02:45:04;96222.09;;;10.61;89.08
47750;BME280;49810;48.160;10.812;2022-10-18T02:47:34;96224.19;;;10.53;89.13
47750;BME280;49810;48.160;10.812;2022-10-18T02:50:03;96228.81;;;10.39;89.35
47750;BME280;49810;48.160;10.812;2022-10-18T02:52:31;96232.50;;;10.38;89.77
47750;BME280;49810;48.160;10.812;2022-10-18T02:54:59;96237.41;;;10.35;89.58
47750;BME280;49810;48.160;10.812;2022-10-18T02:57:28;96239.53;;;10.44;89.66
47750;BME280;49810;48.160;10.812;2022-10-18T02:59:57;96240.59;;;10.43;90.07
47750;BME280;49810;48.160;10.812;2022-10-18T03:02:25;96236.47;;;10.47;89.63
47750;BME280;49810;48.160;10.812;2022-10-18T03:04:54;96229.56;;;10.46;89.54
47750;BME280;49810;48.160;10.812;2022-10-18T03:07:22;96232.25;;;10.40;89.61
47750;BME280;49810;48.160;10.812;2022-10-18T03:09:52;96239.53;;;10.44;89.96
47750;BME280;49810;48.160;10.812;2022-10-18T03:12:21;96246.66;;;10.44;89.93
47750;BME280;49810;48.160;10.812;2022-10-18T03:14:49;96243.66;;;10.58;89.59
47750;BME280;49810;48.160;10.812;2022-10-18T03:17:17;96250.41;;;10.54;89.09
47750;BME280;49810;48.160;10.812;2022-10-18T03:19:45;96248.06;;;10.64;88.97
47750;BME280;49810;48.160;10.812;2022-10-18T03:22:14;96247.63;;;10.67;88.76
47750;BME280;49810;48.160;10.812;2022-10-18T03:24:44;96250.94;;;10.81;88.55
47750;BME280;49810;48.160;10.812;2022-10-18T03:27:12;96257.94;;;10.75;88.19
47750;BME280;49810;48.160;10.812;2022-10-18T03:29:40;96253.28;;;10.89;87.61
47750;BME280;49810;48.160;10.812;2022-10-18T03:32:08;96245.81;;;10.86;87.49
47750;BME280;49810;48.160;10.812;2022-10-18T03:34:36;96235.38;;;10.73;87.97
47750;BME280;49810;48.160;10.812;2022-10-18T03:37:04;96237.94;;;10.79;88.30
47750;BME280;49810;48.160;10.812;2022-10-18T03:39:34;96248.66;;;10.84;87.95
47750;BME280;49810;48.160;10.812;2022-10-18T03:42:02;96246.94;;;10.90;87.73
47750;BME280;49810;48.160;10.812;2022-10-18T03:44:30;96247.19;;;11.07;87.45
47750;BME280;49810;48.160;10.812;2022-10-18T03:46:58;96244.19;;;11.14;86.65
47750;BME280;49810;48.160;10.812;2022-10-18T03:49:27;96238.47;;;11.18;86.56
47750;BME280;49810;48.160;10.812;2022-10-18T03:51:55;96240.53;;;11.16;86.88
47750;BME280;49810;48.160;10.812;2022-10-18T03:54:23;96239.34;;;11.30;86.88
47750;BME280;49810;48.160;10.812;2022-10-18T03:56:54;96237.69;;;11.28;86.60
47750;BME280;49810;48.160;10.812;2022-10-18T03:59:22;96238.69;;;11.46;86.28
47750;BME280;49810;48.160;10.812;2022-10-18T04:01:50;96228.19;;;11.39;86.71
47750;BME280;49810;48.160;10.812;2022-10-18T04:04:18;96224.16;;;11.37;86.57
47750;BME280;49810;48.160;10.812;2022-10-18T04:06:47;96225.78;;;11.49;86.50
47750;BME280;49810;48.160;10.812;2022-10-18T04:09:15;96226.03;;;11.48;86.18
47750;BME280;49810;48.160;10.812;2022-10-18T04:11:43;96227.75;;;11.42;86.93
47750;BME280;49810;48.160;10.812;2022-10-18T04:14:13;96233.25;;;11.41;86.70
47750;BME280;49810;48.160;10.812;2022-10-18T04:16:41;96234.00;;;11.48;86.46
47750;BME280;49810;48.160;10.812;2022-10-18T04:19:09;96236.75;;;11.82;85.36
47750;BME280;49810;48.160;10.812;2022-10-18T04:21:37;96239.53;;;11.87;84.53
47750;BME280;49810;48.160;10.812;2022-10-18T04:24:05;96226.00;;;11.66;85.36
47750;BME280;49810;48.160;10.812;2022-10-18T04:26:34;96229.91;;;11.63;85.66
47750;BME280;49810;48.160;10.812;2022-10-18T04:29:02;96220.75;;;11.48;86.24
47750;BME280;49810;48.160;10.812;2022-10-18T04:31:32;96225.78;;;11.49;86.72
47750;BME280;49810;48.160;10.812;2022-10-18T04:34:00;96229.47;;;11.48;87.02
47750;BME280;49810;48.160;10.812;2022-10-18T04:36:30;96228.56;;;11.43;86.52
47750;BME280;49810;48.160;10.812;2022-10-18T04:38:58;96231.78;;;11.45;86.80
47750;BME280;49810;48.160;10.812;2022-10-18T04:41:26;96219.59;;;11.44;87.34
47750;BME280;49810;48.160;10.812;2022-10-18T04:43:54;96223.69;;;11.69;88.28
47750;BME280;49810;48.160;10.812;2022-10-18T04:46:23;96220.88;;;12.17;88.33
47750;BME280;49810;48.160;10.812;2022-10-18T04:48:53;96219.81;;;11.83;86.41
47750;BME280;49810;48.160;10.812;2022-10-18T04:51:21;96220.84;;;11.71;85.79
47750;BME280;49810;48.160;10.812;2022-10-18T04:53:49;96222.00;;;11.86;85.78
47750;BME280;49810;48.160;10.812;2022-10-18T04:56:17;96214.63;;;11.88;84.77
47750;BME280;49810;48.160;10.812;2022-10-18T04:58:45;96214.06;;;11.98;83.99
47750;BME280;49810;48.160;10.812;2022-10-18T05:01:13;96210.72;;;11.91;84.77
47750;BME280;49810;48.160;10.812;2022-10-18T05:03:43;96215.66;;;11.76;84.95
47750;BME280;49810;48.160;10.812;2022-10-18T05:06:12;96210.69;;;11.68;85.38
47750;BME280;49810;48.160;10.812;2022-10-18T05:08:40;96217.47;;;11.64;86.15
47750;BME280;49810;48.160;10.812;2022-10-18T05:11:08;96224.03;;;11.61;86.46
47750;BME280;49810;48.160;10.812;2022-10-18T05:13:37;96220.19;;;11.57;86.47
47750;BME280;49810;48.160;10.812;2022-10-18T05:16:05;96221.38;;;11.61;86.32
47750;BME280;49810;48.160;10.812;2022-10-18T05:18:33;96220.41;;;11.56;86.30
47750;BME280;49810;48.160;10.812;2022-10-18T05:21:01;96223.63;;;11.87;84.64
47750;BME280;49810;48.160;10.812;2022-10-18T05:23:31;96226.97;;;12.17;83.09
47750;BME280;49810;48.160;10.812;2022-10-18T05:26:01;96226.75;;;12.30;82.39
47750;BME280;49810;48.160;10.812;2022-10-18T05:28:30;96228.00;;;12.16;82.53
47750;BME280;49810;48.160;10.812;2022-10-18T05:31:09;96226.75;;;12.30;81.94
47750;BME280;49810;48.160;10.812;2022-10-18T05:33:37;96228.72;;;12.23;82.69
47750;BME280;49810;48.160;10.812;2022-10-18T05:36:06;96236.19;;;12.15;82.51
47750;BME280;49810;48.160;10.812;2022-10-18T05:38:38;96218.91;;;12.12;82.97
47750;BME280;49810;48.160;10.812;2022-10-18T05:41:09;96216.34;;;11.94;83.75
47750;BME280;49810;48.160;10.812;2022-10-18T05:43:37;96218.44;;;11.92;84.09
47750;BME280;49810;48.160;10.812;2022-10-18T05:46:05;96222.72;;;12.05;83.76
47750;BME280;49810;48.160;10.812;2022-10-18T05:48:41;96220.88;;;12.17;83.16
47750;BME280;49810;48.160;10.812;2022-10-18T05:51:09;96216.25;;;12.12;82.98
47750;BME280;49810;48.160;10.812;2022-10-18T05:53:38;96225.84;;;12.25;82.69
47750;BME280;49810;48.160;10.812;2022-10-18T05:56:07;96225.25;;;12.23;82.85
47750;BME280;49810;48.160;10.812;2022-10-18T05:58:38;96232.53;;;12.27;82.70
47750;BME280;49810;48.160;10.812;2022-10-18T06:01:08;96236.69;;;12.23;83.37
47750;BME280;49810;48.160;10.812;2022-10-18T06:03:36;96231.94;;;12.37;82.32
47750;BME280;49810;48.160;10.812;2022-10-18T06:06:07;96237.09;;;11.97;83.38
47750;BME280;49810;48.160;10.812;2022-10-18T06:08:36;96238.03;;;12.03;83.86
47750;BME280;49810;48.160;10.812;2022-10-18T06:11:07;96237.72;;;11.99;83.98
47750;BME280;49810;48.160;10.812;2022-10-18T06:13:38;96243.13;;;12.04;83.99
47750;BME280;49810;48.160;10.812;2022-10-18T06:16:07;96243.00;;;11.99;84.32
47750;BME280;49810;48.160;10.812;2022-10-18T06:18:35;96238.34;;;11.72;85.07
47750;BME280;49810;48.160;10.812;2022-10-18T06:21:04;96237.66;;;11.88;84.83
47750;BME280;49810;48.160;10.812;2022-10-18T06:23:32;96243.19;;;11.75;84.67
47750;BME280;49810;48.160;10.812;2022-10-18T06:26:01;96246.22;;;11.90;84.16
47750;BME280;49810;48.160;10.812;2022-10-18T06:28:32;96248.66;;;12.14;84.22
47750;BME280;49810;48.160;10.812;2022-10-18T06:31:01;96245.41;;;12.12;83.35
47750;BME280;49810;48.160;10.812;2022-10-18T06:33:30;96240.13;;;12.24;83.17
47750;BME280;49810;48.160;10.812;2022-10-18T06:35:59;96238.38;;;12.52;81.93
47750;BME280;49810;48.160;10.812;2022-10-18T06:38:28;96237.19;;;12.71;81.46
47750;BME280;49810;48.160;10.812;2022-10-18T06:40:57;96238.81;;;12.84;80.43
47750;BME280;49810;48.160;10.812;2022-10-18T06:43:25;96236.59;;;13.32;78.49
47750;BME280;49810;48.160;10.812;2022-10-18T06:45:55;96238.59;;;13.25;79.06
47750;BME280;49810;48.160;10.812;2022-10-18T06:48:23;96242.91;;;13.42;78.63
47750;BME280;49810;48.160;10.812;2022-10-18T06:50:52;96245.16;;;13.34;78.48
47750;BME280;49810;48.160;10.812;2022-10-18T06:53:22;96242.44;;;13.45;78.50
47750;BME280;49810;48.160;10.812;2022-10-18T06:55:51;96240.44;;;13.24;79.59
47750;BME280;49810;48.160;10.812;2022-10-18T06:58:19;96241.44;;;13.35;79.56
47750;BME280;49810;48.160;10.812;2022-10-18T07:00:47;96256.75;;;13.16;79.76
47750;BME280;49810;48.160;10.812;2022-10-18T07:03:17;96247.50;;;13.75;79.07
47750;BME280;49810;48.160;10.812;2022-10-18T07:05:45;96255.03;;;13.66;78.90
47750;BME280;49810;48.160;10.812;2022-10-18T07:08:13;96249.09;;;13.76;79.00
47750;BME280;49810;48.160;10.812;2022-10-18T07:10:50;96246.16;;;13.89;78.98
47750;BME280;49810;48.160;10.812;2022-10-18T07:13:19;96246.53;;;13.97;78.20
47750;BME280;49810;48.160;10.812;2022-10-18T07:16:06;96241.06;;;14.37;76.67
47750;BME280;49810;48.160;10.812;2022-10-18T07:18:42;96252.22;;;14.17;77.21
47750;BME280;49810;48.160;10.812;2022-10-18T07:21:12;96252.81;;;14.74;81.17
47750;BME280;49810;48.160;10.812;2022-10-18T07:23:43;96249.56;;;15.10;76.00
47750;BME280;49810;48.160;10.812;2022-10-18T07:26:14;96247.22;;;15.35;74.74
47750;BME280;49810;48.160;10.812;2022-10-18T07:28:46;96247.22;;;15.88;73.10
47750;BME280;49810;48.160;10.812;2022-10-18T07:31:15;96254.13;;;15.84;72.60
47750;BME280;49810;48.160;10.812;2022-10-18T07:33:45;96251.06;;;15.97;72.63
47750;BME280;49810;48.160;10.812;2022-10-18T07:36:13;96255.41;;;16.08;71.55
47750;BME280;49810;48.160;10.812;2022-10-18T07:38:41;96257.34;;;15.59;73.17
47750;BME280;49810;48.160;10.812;2022-10-18T07:44:20;96267.16;;;14.73;76.86
47750;BME280;49810;48.160;10.812;2022-10-18T07:46:48;96263.91;;;14.87;75.93
47750;BME280;49810;48.160;10.812;2022-10-18T07:49:17;96262.00;;;15.04;75.15
47750;BME280;49810;48.160;10.812;2022-10-18T07:51:45;96261.78;;;14.51;76.82
47750;BME280;49810;48.160;10.812;2022-10-18T07:54:14;96256.38;;;15.01;74.74
47750;BME280;49810;48.160;10.812;2022-10-18T07:56:42;96259.63;;;14.86;75.66
47750;BME280;49810;48.160;10.812;2022-10-18T07:59:10;96263.91;;;14.87;75.32
47750;BME280;49810;48.160;10.812;2022-10-18T08:01:38;96248.34;;;14.79;75.84
47750;BME280;49810;48.160;10.812;2022-10-18T08:04:06;96245.16;;;14.99;75.68
47750;BME280;49810;48.160;10.812;2022-10-18T08:06:43;96249.34;;;15.16;74.97
47750;BME280;49810;48.160;10.812;2022-10-18T08:09:11;96241.16;;;15.23;74.48
47750;BME280;49810;48.160;10.812;2022-10-18T08:11:39;96244.28;;;15.15;75.32
47750;BME280;49810;48.160;10.812;2022-10-18T08:14:07;96251.22;;;14.94;76.43
47750;BME280;49810;48.160;10.812;2022-10-18T08:16:35;96256.28;;;15.34;74.56
47750;BME280;49810;48.160;10.812;2022-10-18T08:19:03;96254.47;;;15.39;74.85
47750;BME280;49810;48.160;10.812;2022-10-18T08:21:31;96256.47;;;15.32;75.15
47750;BME280;49810;48.160;10.812;2022-10-18T08:24:01;96251.00;;;15.39;75.62
47750;BME280;49810;48.160;10.812;2022-10-18T08:26:29;96255.44;;;15.81;74.07
47750;BME280;49810;48.160;10.812;2022-10-18T08:28:58;96258.50;;;15.68;74.02
47750;BME280;49810;48.160;10.812;2022-10-18T08:31:48;96246.53;;;15.44;74.52
47750;BME280;49810;48.160;10.812;2022-10-18T08:34:16;96253.38;;;15.62;74.38
47750;BME280;49810;48.160;10.812;2022-10-18T08:36:45;96259.22;;;15.85;73.70
47750;BME280;49810;48.160;10.812;2022-10-18T08:39:15;96251.75;;;15.87;73.40
47750;BME280;49810;48.160;10.812;2022-10-18T08:44:41;96249.44;;;16.27;72.23
47750;BME280;49810;48.160;10.812;2022-10-18T08:47:12;96251.91;;;16.39;71.63
47750;BME280;49810;48.160;10.812;2022-10-18T08:49:47;96243.47;;;16.47;71.09
47750;BME280;49810;48.160;10.812;2022-10-18T08:52:23;96248.59;;;16.53;70.84
47750;BME280;49810;48.160;10.812;2022-10-18T08:55:01;96250.81;;;16.66;71.50
47750;BME280;49810;48.160;10.812;2022-10-18T08:57:30;96253.59;;;16.86;70.85
47750;BME280;49810;48.160;10.812;2022-10-18T09:00:01;96252.66;;;17.12;70.70
47750;BME280;49810;48.160;10.812;2022-10-18T09:02:37;96242.84;;;17.28;69.37
47750;BME280;49810;48.160;10.812;2022-10-18T09:05:18;96253.56;;;17.38;69.54
47750;BME280;49810;48.160;10.812;2022-10-18T09:08:00;96252.56;;;17.54;69.16
47750;BME280;49810;48.160;10.812;2022-10-18T09:10:43;96248.91;;;17.85;68.83
47750;BME280;49810;48.160;10.812;2022-10-18T09:13:34;96247.06;;;18.20;67.98
47750;BME280;49810;48.160;10.812;2022-10-18T09:16:07;96235.28;;;18.41;66.03
47750;BME280;49810;48.160;10.812;2022-10-18T09:18:52;96238.50;;;18.58;65.76
47750;BME280;49810;48.160;10.812;2022-10-18T09:21:29;96240.59;;;18.76;65.18
47750;BME280;49810;48.160;10.812;2022-10-18T09:24:09;96243.53;;;18.80;63.36
47750;BME280;49810;48.160;10.812;2022-10-18T09:26:43;96249.97;;;18.84;64.51
47750;BME280;49810;48.160;10.812;2022-10-18T09:29:27;96244.31;;;18.95;63.96
47750;BME280;49810;48.160;10.812;2022-10-18T09:32:03;96236.50;;;19.09;64.56
47750;BME280;49810;48.160;10.812;2022-10-18T09:34:41;96232.19;;;19.18;64.18
47750;BME280;49810;48.160;10.812;2022-10-18T09:37:15;96236.50;;;19.14;63.83
47750;BME280;49810;48.160;10.812;2022-10-18T09:39:44;96231.91;;;19.29;63.98
47750;BME280;49810;48.160;10.812;2022-10-18T09:42:19;96228.94;;;19.36;63.98
47750;BME280;49810;48.160;10.812;2022-10-18T09:44:55;96235.34;;;19.35;63.77
47750;BME280;49810;48.160;10.812;2022-10-18T09:47:29;96233.69;;;19.44;63.73
47750;BME280;49810;48.160;10.812;2022-10-18T09:50:02;96237.22;;;19.39;62.63
47750;BME280;49810;48.160;10.812;2022-10-18T09:52:37;96234.22;;;19.51;63.65
47750;BME280;49810;48.160;10.812;2022-10-18T09:55:14;96231.66;;;19.69;63.44
47750;BME280;49810;48.160;10.812;2022-10-18T09:57:49;96227.94;;;19.71;63.68
47750;BME280;49810;48.160;10.812;2022-10-18T10:00:23;96223.06;;;19.73;63.66
47750;BME280;49810;48.160;10.812;2022-10-18T10:02:54;96233.78;;;19.77;62.31
47750;BME280;49810;48.160;10.812;2022-10-18T10:05:22;96221.38;;;19.87;62.38
47750;BME280;49810;48.160;10.812;2022-10-18T10:07:56;96229.47;;;19.82;61.31
47750;BME280;49810;48.160;10.812;2022-10-18T10:10:27;96223.75;;;19.93;61.94
47750;BME280;49810;48.160;10.812;2022-10-18T10:13:05;96237.72;;;19.95;61.63
47750;BME280;49810;48.160;10.812;2022-10-18T10:15:35;96228.88;;;19.90;60.51
47750;BME280;49810;48.160;10.812;2022-10-18T10:18:17;96227.28;;;19.89;60.72
47750;BME280;49810;48.160;10.812;2022-10-18T10:20:48;96220.97;;;20.08;61.49
47750;BME280;49810;48.160;10.812;2022-10-18T10:23:20;96226.78;;;20.20;60.17
47750;BME280;49810;48.160;10.812;2022-10-18T10:25:51;96213.38;;;20.20;59.35
47750;BME280;49810;48.160;10.812;2022-10-18T10:28:23;96224.88;;;20.26;59.45
47750;BME280;49810;48.160;10.812;2022-10-18T10:30:53;96211.69;;;20.29;58.80
47750;BME280;49810;48.160;10.812;2022-10-18T10:33:31;96202.16;;;20.42;58.69
47750;BME280;49810;48.160;10.812;2022-10-18T10:36:02;96210.69;;;20.49;58.54
47750;BME280;49810;48.160;10.812;2022-10-18T10:38:30;96210.25;;;20.37;58.97
47750;BME280;49810;48.160;10.812;2022-10-18T10:40:58;96207.97;;;20.54;58.06
47750;BME280;49810;48.160;10.812;2022-10-18T10:43:28;96221.25;;;20.69;57.13
47750;BME280;49810;48.160;10.812;2022-10-18T10:46:07;96204.72;;;20.80;57.90
47750;BME280;49810;48.160;10.812;2022-10-18T10:48:45;96209.50;;;20.88;56.89
47750;BME280;49810;48.160;10.812;2022-10-18T10:51:17;96208.63;;;20.69;56.85
47750;BME280;49810;48.160;10.812;2022-10-18T10:53:58;96210.50;;;20.97;58.17
47750;BME280;49810;48.160;10.812;2022-10-18T10:56:29;96196.16;;;21.07;56.39
47750;BME280;49810;48.160;10.812;2022-10-18T10:59:07;96200.22;;;21.04;57.04
47750;BME280;49810;48.160;10.812;2022-10-18T11:01:36;96202.66;;;21.01;57.38
47750;BME280;49810;48.160;10.812;2022-10-18T11:04:26;96198.78;;;21.12;57.32
47750;BME280;49810;48.160;10.812;2022-10-18T11:07:05;96193.25;;;20.98;57.17
47750;BME280;49810;48.160;10.812;2022-10-18T11:09:47;96195.88;;;21.08;57.35
47750;BME280;49810;48.160;10.812;2022-10-18T11:12:27;96194.63;;;20.96;56.40
47750;BME280;49810;48.160;10.812;2022-10-18T11:15:10;96185.66;;;21.05;56.34
47750;BME280;49810;48.160;10.812;2022-10-18T11:17:46;96189.38;;;21.09;55.49
47750;BME280;49810;48.160;10.812;2022-10-18T11:20:22;96192.63;;;21.06;55.54
47750;BME280;49810;48.160;10.812;2022-10-18T11:23:00;96194.47;;;21.11;55.38
47750;BME280;49810;48.160;10.812;2022-10-18T11:25:48;96183.38;;;21.17;55.64
47750;BME280;49810;48.160;10.812;2022-10-18T11:28:29;96186.69;;;21.09;56.11
47750;BME280;49810;48.160;10.812;2022-10-18T11:31:07;96174.56;;;21.30;55.36
47750;BME280;49810;48.160;10.812;2022-10-18T11:33:48;96175.38;;;21.31;54.76
47750;BME280;49810;48.160;10.812;2022-10-18T11:36:44;96186.16;;;21.31;54.03
47750;BME280;49810;48.160;10.812;2022-10-18T11:39:44;96165.94;;;21.33;55.20
47750;BME280;49810;48.160;10.812;2022-10-18T11:42:20;96170.16;;;21.58;54.39
47750;BME280;49810;48.160;10.812;2022-10-18T11:45:03;96145.13;;;22.99;50.88
47750;BME280;49810;48.160;10.812;2022-10-18T11:47:39;96159.34;;;23.04;50.77
47750;BME280;49810;48.160;10.812;2022-10-18T11:50:21;96149.13;;;23.77;49.23
47750;BME280;49810;48.160;10.812;2022-10-18T11:52:56;96145.81;;;24.68;46.58
47750;BME280;49810;48.160;10.812;2022-10-18T11:55:40;96158.69;;;25.02;45.75
47750;BME280;49810;48.160;10.812;2022-10-18T11:58:24;96152.06;;;24.77;46.81
47750;BME280;49810;48.160;10.812;2022-10-18T12:00:56;96141.97;;;25.81;43.76
47750;BME280;49810;48.160;10.812;2022-10-18T12:03:46;96139.88;;;25.78;44.23
47750;BME280;49810;48.160;10.812;2022-10-18T12:06:19;96137.97;;;25.87;44.23
47750;BME280;49810;48.160;10.812;2022-10-18T12:08:51;96130.03;;;25.99;43.56
47750;BME280;49810;48.160;10.812;2022-10-18T12:11:25;96131.78;;;26.84;42.39
47750;BME280;49810;48.160;10.812;2022-10-18T12:13:56;96124.69;;;26.91;41.70
47750;BME280;49810;48.160;10.812;2022-10-18T12:16:28;96126.28;;;26.92;41.21
47750;BME280;49810;48.160;10.812;2022-10-18T12:19:19;96130.97;;;26.83;41.40
47750;BME280;49810;48.160;10.812;2022-10-18T12:21:55;96129.47;;;26.40;42.43
47750;BME280;49810;48.160;10.812;2022-10-18T12:24:26;96130.25;;;26.66;42.21
47750;BME280;49810;48.160;10.812;2022-10-18T12:26:57;96117.50;;;26.95;40.96
47750;BME280;49810;48.160;10.812;2022-10-18T12:29:29;96124.50;;;26.67;41.24
47750;BME280;49810;48.160;10.812;2022-10-18T12:32:00;96129.81;;;25.45;43.47
47750;BME280;49810;48.160;10.812;2022-10-18T12:34:34;96139.25;;;24.61;46.05
47750;BME280;49810;48.160;10.812;2022-10-18T12:37:21;96135.16;;;23.97;46.63
47750;BME280;49810;48.160;10.812;2022-10-18T12:39:56;96119.94;;;23.66;47.58
47750;BME280;49810;48.160;10.812;2022-10-18T12:42:46;96119.44;;;23.42;47.08
47750;BME280;49810;48.160;10.812;2022-10-18T12:45:23;96134.34;;;23.26;48.94
47750;BME280;49810;48.160;10.812;2022-10-18T12:47:52;96124.16;;;22.96;49.22
47750;BME280;49810;48.160;10.812;2022-10-18T12:50:32;96125.84;;;22.51;50.37
47750;BME280;49810;48.160;10.812;2022-10-18T12:53:05;96114.47;;;22.68;50.67
47750;BME280;49810;48.160;10.812;2022-10-18T12:55:36;96120.28;;;22.75;50.46
47750;BME280;49810;48.160;10.812;2022-10-18T12:58:28;96111.28;;;22.66;51.71
47750;BME280;49810;48.160;10.812;2022-10-18T13:01:02;96104.78;;;22.80;52.09
47750;BME280;49810;48.160;10.812;2022-10-18T13:03:59;96116.97;;;22.78;51.64
47750;BME280;49810;48.160;10.812;2022-10-18T13:09:35;96114.56;;;22.63;53.01
47750;BME280;49810;48.160;10.812;2022-10-18T13:15:34;96117.09;;;22.41;54.08
47750;BME280;49810;48.160;10.812;2022-10-18T13:18:18;96119.97;;;22.49;54.49
47750;BME280;49810;48.160;10.812;2022-10-18T13:21:09;96110.19;;;22.53;54.82
47750;BME280;49810;48.160;10.812;2022-10-18T13:23:54;96114.88;;;22.29;54.56
47750;BME280;49810;48.160;10.812;2022-10-18T13:26:37;96116.81;;;22.42;53.18
47750;BME280;49810;48.160;10.812;2022-10-18T13:29:24;96116.09;;;22.23;53.80
47750;BME280;49810;48.160;10.812;2022-10-18T13:32:02;96118.78;;;22.37;53.40
47750;BME280;49810;48.160;10.812;2022-10-18T13:34:37;96116.97;;;22.64;52.14